createdAt,value
2022-11-14T00:01:19.093Z,87.19
2022-11-14T00:04:46.119Z,88.57
2022-11-14T00:08:13.848Z,89.21
2022-11-14T00:11:40.190Z,88.92
2022-11-14T00:15:01.751Z,88.72
2022-11-14T00:18:25.622Z,87.84
2022-11-14T00:21:49.583Z,87.72
2022-11-14T00:25:13.477Z,87.57
2022-11-14T00:28:37.484Z,87.50
2022-11-14T00:31:59.005Z,87.96
2022-11-14T00:35:20.532Z,87.51
2022-11-14T00:38:42.084Z,87.39
2022-11-14T00:42:03.760Z,87.90
2022-11-14T00:45:25.275Z,88.03
2022-11-14T00:48:51.525Z,87.92
2022-11-14T00:52:13.070Z,88.18
2022-11-14T00:55:36.899Z,87.90
2022-11-14T00:58:58.435Z,87.87
2022-11-14T01:02:23.204Z,87.70
2022-11-14T01:05:49.513Z,87.61
2022-11-14T01:09:11.107Z,87.43
2022-11-14T01:12:34.222Z,87.70
2022-11-14T01:15:58.409Z,87.47
2022-11-14T01:19:19.961Z,88.04
2022-11-14T01:22:43.800Z,87.92
2022-11-14T01:26:08.665Z,87.66
2022-11-14T01:29:32.681Z,88.13
2022-11-14T01:32:56.681Z,87.92
2022-11-14T01:36:19.402Z,87.08
2022-11-14T01:39:40.943Z,87.01
2022-11-14T01:43:11.352Z,87.81
2022-11-14T01:46:40.094Z,87.85
2022-11-14T01:50:07.317Z,88.20
2022-11-14T01:53:31.527Z,87.56
2022-11-14T01:56:58.340Z,87.84
2022-11-14T02:00:22.379Z,87.98
2022-11-14T02:03:47.106Z,87.83
2022-11-14T02:07:12.783Z,87.24
2022-11-14T02:10:34.384Z,87.43
2022-11-14T02:13:56.345Z,87.13
2022-11-14T02:17:30.002Z,87.88
2022-11-14T02:20:52.294Z,87.83
2022-11-14T02:24:14.345Z,87.68
2022-11-14T02:27:39.290Z,87.23
2022-11-14T02:31:00.850Z,86.65
2022-11-14T02:34:24.892Z,87.51
2022-11-14T02:37:48.872Z,87.78
2022-11-14T02:41:11.606Z,87.71
2022-11-14T02:44:33.179Z,87.09
2022-11-14T02:47:59.666Z,87.18
2022-11-14T02:51:21.557Z,87.23
2022-11-14T02:54:43.053Z,86.57
2022-11-14T02:58:07.558Z,86.75
2022-11-14T03:01:31.600Z,86.77
2022-11-14T03:04:53.647Z,87.07
2022-11-14T03:08:15.184Z,87.30
2022-11-14T03:11:36.693Z,86.31
2022-11-14T03:14:58.458Z,85.71
2022-11-14T03:18:22.503Z,84.38
2022-11-14T03:21:44.076Z,86.87
2022-11-14T03:25:05.901Z,86.98
2022-11-14T03:28:27.906Z,86.39
2022-11-14T03:31:49.658Z,86.17
2022-11-14T03:35:11.550Z,86.05
2022-11-14T03:38:33.725Z,85.06
2022-11-14T03:41:57.365Z,85.42
2022-11-14T03:45:18.858Z,85.32
2022-11-14T03:48:43.013Z,85.90
2022-11-14T03:52:06.726Z,86.04
2022-11-14T03:55:28.300Z,85.98
2022-11-14T03:58:49.795Z,85.63
2022-11-14T04:02:11.326Z,85.17
2022-11-14T04:05:35.158Z,85.24
2022-11-14T04:08:56.807Z,85.38
2022-11-14T04:12:20.868Z,85.65
2022-11-14T04:15:44.785Z,85.37
2022-11-14T04:19:06.434Z,85.18
2022-11-14T04:22:30.603Z,85.54
2022-11-14T04:25:52.587Z,84.54
2022-11-14T04:29:14.238Z,85.47
2022-11-14T04:32:35.741Z,84.99
2022-11-14T04:35:57.268Z,85.22
2022-11-14T04:39:18.790Z,85.03
2022-11-14T04:42:40.367Z,84.03
2022-11-14T04:46:04.882Z,84.21
2022-11-14T04:49:26.432Z,83.86
2022-11-14T04:52:52.194Z,83.36
2022-11-14T04:56:13.720Z,83.66
2022-11-14T04:59:35.496Z,83.37
2022-11-14T05:02:59.109Z,82.48
2022-11-14T05:06:20.607Z,83.81
2022-11-14T05:09:44.352Z,84.24
2022-11-14T05:13:05.840Z,83.94
2022-11-14T05:16:27.640Z,83.81
2022-11-14T05:19:49.252Z,83.44
2022-11-14T05:23:23.763Z,83.54
2022-11-14T05:26:45.494Z,83.89
2022-11-14T05:30:07.764Z,83.91
2022-11-14T05:33:30.009Z,84.11
2022-11-14T05:36:51.592Z,84.46
2022-11-14T05:40:13.144Z,84.15
2022-11-14T05:43:37.847Z,84.06
2022-11-14T05:47:01.463Z,84.20
2022-11-14T05:50:25.406Z,84.19
2022-11-14T05:53:49.299Z,84.58
2022-11-14T05:57:10.841Z,84.32
2022-11-14T06:00:42.369Z,83.99
2022-11-14T06:04:08.314Z,84.62
2022-11-14T06:07:29.969Z,84.42
2022-11-14T06:10:51.540Z,84.11
2022-11-14T06:14:15.596Z,84.29
2022-11-14T06:17:37.228Z,83.75
2022-11-14T06:21:04.158Z,83.28
2022-11-14T06:24:28.738Z,83.77
2022-11-14T06:27:50.259Z,83.44
2022-11-14T06:31:17.122Z,83.34
2022-11-14T06:34:38.660Z,82.72
2022-11-14T06:38:00.394Z,83.84
2022-11-14T06:41:22.761Z,82.90
2022-11-14T06:44:44.296Z,82.66
2022-11-14T06:48:06.837Z,82.70
2022-11-14T06:51:28.365Z,82.71
2022-11-14T06:54:49.929Z,82.91
2022-11-14T06:58:14.107Z,82.83
2022-11-14T07:01:35.647Z,82.64
2022-11-14T07:04:57.189Z,94.45
2022-11-14T07:08:21.176Z,92.69
2022-11-14T07:11:45.393Z,89.87
2022-11-14T07:15:07.428Z,84.79
2022-11-14T07:18:33.667Z,80.52
2022-11-14T07:21:58.438Z,77.23
2022-11-14T07:25:22.830Z,79.22
2022-11-14T07:28:50.832Z,79.66
2022-11-14T07:32:14.550Z,80.39
2022-11-14T07:35:36.037Z,79.93
2022-11-14T07:38:57.617Z,80.53
2022-11-14T07:42:19.120Z,79.73
2022-11-14T07:45:40.655Z,81.06
2022-11-14T07:49:02.198Z,81.07
2022-11-14T07:52:23.914Z,81.21
2022-11-14T07:55:45.424Z,80.60
2022-11-14T07:59:09.279Z,79.69
2022-11-14T08:02:30.830Z,80.06
2022-11-14T08:06:02.588Z,80.21
2022-11-14T08:09:24.105Z,84.24
2022-11-14T08:12:46.235Z,85.74
2022-11-14T08:16:13.780Z,84.12
2022-11-14T08:19:38.312Z,79.18
2022-11-14T08:23:07.292Z,82.39
2022-11-14T08:26:33.931Z,79.90
2022-11-14T08:29:55.901Z,79.14
2022-11-14T08:33:17.573Z,74.54
2022-11-14T08:36:39.061Z,74.56
2022-11-14T08:40:00.635Z,76.31
2022-11-14T08:43:22.134Z,75.81
2022-11-14T08:46:46.244Z,74.74
2022-11-14T08:50:10.600Z,73.94
2022-11-14T08:53:34.915Z,72.63
2022-11-14T08:56:58.903Z,71.28
2022-11-14T09:00:23.333Z,70.17
2022-11-14T09:03:45.024Z,67.93
2022-11-14T09:07:07.016Z,67.25
2022-11-14T09:10:28.604Z,66.01
2022-11-14T09:13:54.737Z,67.37
2022-11-14T09:17:16.817Z,68.12
2022-11-14T09:20:40.293Z,72.39
2022-11-14T09:24:05.021Z,70.70
2022-11-14T09:27:27.432Z,70.65
2022-11-14T09:30:49.029Z,68.06
2022-11-14T09:34:10.858Z,62.29
2022-11-14T09:37:33.359Z,61.32
2022-11-14T09:41:00.651Z,62.22
2022-11-14T09:44:28.486Z,61.79
2022-11-14T09:47:56.815Z,61.15
2022-11-14T09:51:18.283Z,60.72
2022-11-14T09:54:47.895Z,59.39
2022-11-14T09:58:19.853Z,59.80
2022-11-14T10:02:15.364Z,58.29
2022-11-14T10:05:36.876Z,58.47
2022-11-14T10:09:28.858Z,57.78
2022-11-14T10:12:54.878Z,56.11
2022-11-14T10:16:34.449Z,55.35
2022-11-14T10:20:24.064Z,55.18
2022-11-14T10:23:57.893Z,54.28
2022-11-14T10:27:25.702Z,51.78
2022-11-14T10:31:14.957Z,50.14
2022-11-14T10:34:48.942Z,48.19
2022-11-14T10:38:18.408Z,47.11
2022-11-14T10:41:57.646Z,47.15
2022-11-14T10:46:15.306Z,45.86
2022-11-14T10:49:37.618Z,47.12
2022-11-14T10:53:03.644Z,47.54
2022-11-14T10:56:27.668Z,46.23
2022-11-14T10:59:49.312Z,46.04
2022-11-14T11:03:10.844Z,44.67
2022-11-14T11:06:32.378Z,45.45
2022-11-14T11:10:18.620Z,46.01
2022-11-14T11:14:00.340Z,45.59
2022-11-14T11:17:23.181Z,45.55
2022-11-14T11:20:44.774Z,44.63
2022-11-14T11:24:09.015Z,43.60
2022-11-14T11:27:32.858Z,43.45
2022-11-14T11:30:56.446Z,43.40
2022-11-14T11:34:30.798Z,42.94
2022-11-14T11:37:59.283Z,40.63
2022-11-14T11:42:00.935Z,40.55
2022-11-14T11:45:13.172Z,40.27
2022-11-14T11:48:41.460Z,40.14
2022-11-14T11:52:18.965Z,44.70
2022-11-14T11:55:44.392Z,47.50
2022-11-14T11:59:22.074Z,42.17
2022-11-14T12:02:50.175Z,44.96
2022-11-14T12:06:27.444Z,43.27
2022-11-14T12:10:09.855Z,40.01
2022-11-14T12:13:52.977Z,38.97
2022-11-14T12:17:58.935Z,40.20
2022-11-14T12:21:42.338Z,39.98
2022-11-14T12:25:18.994Z,40.33
2022-11-14T12:28:59.540Z,40.32
2022-11-14T12:32:40.127Z,40.99
2022-11-14T12:36:06.099Z,39.81
2022-11-14T12:39:31.655Z,41.29
2022-11-14T12:42:53.479Z,42.66
2022-11-14T12:46:15.142Z,43.06
2022-11-14T12:49:48.872Z,42.00
2022-11-14T12:53:40.453Z,43.89
2022-11-14T12:57:09.833Z,46.91
2022-11-14T13:00:39.709Z,47.72
2022-11-14T13:04:16.458Z,50.70
2022-11-14T13:08:04.037Z,49.83
2022-11-14T13:11:50.309Z,51.67
2022-11-14T13:15:43.494Z,52.58
2022-11-14T13:19:33.813Z,52.96
2022-11-14T13:22:57.626Z,53.37
2022-11-14T13:26:21.902Z,58.68
2022-11-14T13:29:48.629Z,62.01
2022-11-14T13:33:48.408Z,59.94
2022-11-14T13:37:27.159Z,60.00
2022-11-14T13:40:48.632Z,59.05
2022-11-14T13:44:47.638Z,58.86
2022-11-14T13:48:28.011Z,53.78
2022-11-14T13:51:53.955Z,53.74
2022-11-14T13:55:20.867Z,55.00
2022-11-14T13:58:45.962Z,55.74
2022-11-14T14:02:28.732Z,56.57
2022-11-14T14:06:14.144Z,57.38
2022-11-14T14:10:03.655Z,57.99
2022-11-14T14:13:34.149Z,58.79
2022-11-14T14:17:13.038Z,58.79
2022-11-14T14:21:00.587Z,60.66
2022-11-14T14:24:31.866Z,61.51
2022-11-14T14:28:28.812Z,60.60
2022-11-14T14:31:51.787Z,61.85
2022-11-14T14:35:39.086Z,61.44
2022-11-14T14:39:27.169Z,62.68
2022-11-14T14:42:51.233Z,62.99
2022-11-14T14:46:17.315Z,62.77
2022-11-14T14:49:41.935Z,69.00
2022-11-14T14:53:04.160Z,68.66
2022-11-14T14:56:28.833Z,67.72
2022-11-14T15:00:19.751Z,66.28
2022-11-14T15:03:52.740Z,67.50
2022-11-14T15:07:24.990Z,67.23
2022-11-14T15:10:46.774Z,61.76
2022-11-14T15:14:14.369Z,62.40
2022-11-14T15:17:36.176Z,62.65
2022-11-14T15:21:30.763Z,63.59
2022-11-14T15:25:27.726Z,64.84
2022-11-14T15:28:49.300Z,65.46
2022-11-14T15:32:20.221Z,66.22
2022-11-14T15:35:44.038Z,67.18
2022-11-14T15:39:24.148Z,67.57
2022-11-14T15:42:45.857Z,67.75
2022-11-14T15:46:27.155Z,67.60
2022-11-14T15:50:14.173Z,67.18
2022-11-14T15:53:39.255Z,67.73
2022-11-14T15:57:13.642Z,68.27
2022-11-14T16:00:35.335Z,68.18
2022-11-14T16:03:58.496Z,68.72
2022-11-14T16:07:20.262Z,69.98
2022-11-14T16:10:41.825Z,71.30
2022-11-14T16:14:03.358Z,71.46
2022-11-14T16:17:24.846Z,77.92
2022-11-14T16:20:46.354Z,78.69
2022-11-14T16:24:16.850Z,77.60
2022-11-14T16:27:38.376Z,75.95
2022-11-14T16:30:59.881Z,74.55
2022-11-14T16:34:23.695Z,74.77
2022-11-14T16:37:47.459Z,73.68
2022-11-14T16:41:14.347Z,71.37
2022-11-14T16:44:41.140Z,69.54
2022-11-14T16:48:04.526Z,70.76
2022-11-14T16:51:48.797Z,71.96
2022-11-14T16:55:09.285Z,72.66
2022-11-14T16:58:30.778Z,72.70
2022-11-14T17:01:52.575Z,73.43
2022-11-14T17:05:14.498Z,73.36
2022-11-14T17:08:36.624Z,74.05
2022-11-14T17:11:58.131Z,74.00
2022-11-14T17:15:22.208Z,74.35
2022-11-14T17:18:43.945Z,74.89
2022-11-14T17:22:05.492Z,74.97
2022-11-14T17:25:27.044Z,75.02
2022-11-14T17:28:48.633Z,75.29
2022-11-14T17:32:10.211Z,81.67
2022-11-14T17:35:31.773Z,80.36
2022-11-14T17:38:56.843Z,78.63
2022-11-14T17:42:18.459Z,79.81
2022-11-14T17:45:41.357Z,78.32
2022-11-14T17:49:03.545Z,77.81
2022-11-14T17:52:25.199Z,72.92
2022-11-14T17:55:54.737Z,73.38
2022-11-14T17:59:20.373Z,74.53
2022-11-14T18:02:42.033Z,74.93
2022-11-14T18:06:12.635Z,75.33
2022-11-14T18:09:36.415Z,75.58
2022-11-14T18:12:58.007Z,75.47
2022-11-14T18:16:20.234Z,75.15
2022-11-14T18:19:44.322Z,75.19
2022-11-14T18:23:08.192Z,76.67
2022-11-14T18:26:32.008Z,75.89
2022-11-14T18:29:53.732Z,75.89
2022-11-14T18:33:15.244Z,75.61
2022-11-14T18:36:36.796Z,74.87
2022-11-14T18:40:00.706Z,73.82
2022-11-14T18:43:25.176Z,74.03
2022-11-14T18:46:46.649Z,73.82
2022-11-14T18:50:08.509Z,74.29
2022-11-14T18:53:32.255Z,73.92
2022-11-14T18:56:54.074Z,73.91
2022-11-14T19:00:18.317Z,75.91
2022-11-14T19:03:42.794Z,75.48
2022-11-14T19:07:04.397Z,73.84
2022-11-14T19:10:28.847Z,74.85
2022-11-14T19:13:50.352Z,77.52
2022-11-14T19:17:14.440Z,76.72
2022-11-14T19:20:35.935Z,76.74
2022-11-14T19:24:00.308Z,77.31
2022-11-14T19:27:27.188Z,76.72
2022-11-14T19:30:51.059Z,77.57
2022-11-14T19:34:12.574Z,77.04
2022-11-14T19:37:34.089Z,75.21
2022-11-14T19:40:56.971Z,74.65
2022-11-14T19:44:20.431Z,73.89
2022-11-14T19:47:41.932Z,74.50
2022-11-14T19:51:06.132Z,76.66
2022-11-14T19:54:27.634Z,77.14
2022-11-14T19:57:49.159Z,77.57
2022-11-14T20:01:13.630Z,87.20
2022-11-14T20:04:37.903Z,88.28
2022-11-14T20:07:59.622Z,85.40
2022-11-14T20:11:21.602Z,79.14
2022-11-14T20:14:43.089Z,72.25
2022-11-14T20:18:06.680Z,72.59
2022-11-14T20:21:32.441Z,73.41
2022-11-14T20:24:53.978Z,74.04
2022-11-14T20:28:17.703Z,74.71
2022-11-14T20:31:39.302Z,74.12
2022-11-14T20:35:00.826Z,74.76
2022-11-14T20:38:27.583Z,75.74
2022-11-14T20:41:49.077Z,75.33
2022-11-14T20:45:11.006Z,74.91
2022-11-14T20:48:34.270Z,76.38
2022-11-14T20:51:58.532Z,76.41
2022-11-14T20:55:20.030Z,75.55
2022-11-14T20:58:51.724Z,76.24
2022-11-14T21:02:14.475Z,77.48
2022-11-14T21:05:39.893Z,78.61
2022-11-14T21:09:01.485Z,78.93
2022-11-14T21:12:23.008Z,79.27
2022-11-14T21:15:44.558Z,79.93
2022-11-14T21:19:09.394Z,79.94
2022-11-14T21:22:35.680Z,80.13
2022-11-14T21:26:04.209Z,80.46
2022-11-14T21:29:27.297Z,80.72
2022-11-14T21:32:48.850Z,79.79
2022-11-14T21:36:43.301Z,80.58
2022-11-14T21:39:58.155Z,80.56
2022-11-14T21:43:22.455Z,81.21
2022-11-14T21:46:48.886Z,80.77
2022-11-14T21:50:13.182Z,81.24
2022-11-14T21:53:37.418Z,81.48
2022-11-14T21:56:58.927Z,81.66
2022-11-14T22:00:20.562Z,82.20
2022-11-14T22:04:01.137Z,82.24
2022-11-14T22:07:22.838Z,82.13
2022-11-14T22:10:48.899Z,82.48
2022-11-14T22:14:10.437Z,82.35
2022-11-14T22:17:33.380Z,81.85
2022-11-14T22:20:55.521Z,81.54
2022-11-14T22:24:17.050Z,81.32
2022-11-14T22:27:38.573Z,81.68
2022-11-14T22:31:13.680Z,81.71
2022-11-14T22:34:35.228Z,80.97
2022-11-14T22:37:59.123Z,81.29
2022-11-14T22:41:24.345Z,80.68
2022-11-14T22:44:51.378Z,80.66
2022-11-14T22:48:13.048Z,81.61
2022-11-14T22:51:34.581Z,81.34
2022-11-14T22:54:56.105Z,81.71
2022-11-14T22:58:20.261Z,81.61
2022-11-14T23:01:41.828Z,81.67
2022-11-14T23:05:06.657Z,81.83
2022-11-14T23:08:30.828Z,82.04
2022-11-14T23:11:54.464Z,82.24
2022-11-14T23:15:18.237Z,82.31
2022-11-14T23:18:42.950Z,82.36
2022-11-14T23:22:09.125Z,82.06
2022-11-14T23:25:30.724Z,82.48
2022-11-14T23:28:55.276Z,82.83
2022-11-14T23:32:16.779Z,83.27
2022-11-14T23:35:38.303Z,83.11
2022-11-14T23:39:02.079Z,82.59
2022-11-14T23:42:26.292Z,83.16
2022-11-14T23:45:50.942Z,82.59
2022-11-14T23:49:12.690Z,82.67
2022-11-14T23:52:37.176Z,82.48
2022-11-14T23:56:00.425Z,82.52
2022-11-14T23:59:21.913Z,82.42
